sensor_id;sensor_type;location;lat;lon;timestamp;temperature;humidity
3194;DHT22;1608;50.860;13.466;2023-03-31T00:01:26;11.80;99.90
3194;DHT22;1608;50.860;13.466;2023-03-31T00:03:53;11.70;99.90
3194;DHT22;1608;50.860;13.466;2023-03-31T00:06:28;11.70;99.90
3194;DHT22;1608;50.860;13.466;2023-03-31T00:08:54;11.60;99.90
3194;DHT22;1608;50.860;13.466;2023-03-31T00:11:27;11.60;99.90
3194;DHT22;1608;50.860;13.466;2023-03-31T00:13:55;11.60;99.90
3194;DHT22;1608;50.860;13.466;2023-03-31T00:16:23;11.70;99.90
3194;DHT22;1608;50.860;13.466;2023-03-31T00:18:51;11.60;99.90
3194;DHT22;1608;50.860;13.466;2023-03-31T00:21:20;11.70;99.90
3194;DHT22;1608;50.860;13.466;2023-03-31T00:23:55;11.70;99.90
3194;DHT22;1608;50.860;13.466;2023-03-31T00:26:22;11.70;99.90
3194;DHT22;1608;50.860;13.466;2023-03-31T00:28:49;11.60;99.90
3194;DHT22;1608;50.860;13.466;2023-03-31T00:31:16;11.50;99.90
3194;DHT22;1608;50.860;13.466;2023-03-31T00:33:45;11.60;99.90
3194;DHT22;1608;50.860;13.466;2023-03-31T00:36:11;11.70;99.90
3194;DHT22;1608;50.860;13.466;2023-03-31T00:38:45;11.70;99.90
3194;DHT22;1608;50.860;13.466;2023-03-31T00:41:13;11.80;99.90
3194;DHT22;1608;50.860;13.466;2023-03-31T00:43:40;11.70;99.90
3194;DHT22;1608;50.860;13.466;2023-03-31T00:46:13;11.80;99.90
3194;DHT22;1608;50.860;13.466;2023-03-31T00:48:47;11.70;99.90
3194;DHT22;1608;50.860;13.466;2023-03-31T00:51:17;11.60;99.90
3194;DHT22;1608;50.860;13.466;2023-03-31T00:53:46;11.60;99.90
3194;DHT22;1608;50.860;13.466;2023-03-31T00:56:16;11.70;99.90
3194;DHT22;1608;50.860;13.466;2023-03-31T00:58:43;11.70;99.90
3194;DHT22;1608;50.860;13.466;2023-03-31T01:01:13;11.70;99.90
3194;DHT22;1608;50.860;13.466;2023-03-31T01:03:42;11.80;99.90
3194;DHT22;1608;50.860;13.466;2023-03-31T01:06:12;11.70;99.90
3194;DHT22;1608;50.860;13.466;2023-03-31T01:08:41;11.80;99.90
3194;DHT22;1608;50.860;13.466;2023-03-31T01:11:12;11.70;99.90
3194;DHT22;1608;50.860;13.466;2023-03-31T01:13:41;11.70;99.90
3194;DHT22;1608;50.860;13.466;2023-03-31T01:16:09;11.70;99.90
3194;DHT22;1608;50.860;13.466;2023-03-31T01:18:36;11.60;99.90
3194;DHT22;1608;50.860;13.466;2023-03-31T01:21:59;11.60;99.90
3194;DHT22;1608;50.860;13.466;2023-03-31T01:27:46;11.30;99.90
3194;DHT22;1608;50.860;13.466;2023-03-31T01:33:37;11.00;99.90
3194;DHT22;1608;50.860;13.466;2023-03-31T01:39:48;10.80;99.90
3194;DHT22;1608;50.860;13.466;2023-03-31T01:42:24;10.80;99.90
3194;DHT22;1608;50.860;13.466;2023-03-31T01:44:59;10.80;99.90
3194;DHT22;1608;50.860;13.466;2023-03-31T01:47:31;10.70;99.90
3194;DHT22;1608;50.860;13.466;2023-03-31T01:50:09;10.70;99.90
3194;DHT22;1608;50.860;13.466;2023-03-31T01:52:41;10.70;99.90
3194;DHT22;1608;50.860;13.466;2023-03-31T01:55:15;10.70;99.90
3194;DHT22;1608;50.860;13.466;2023-03-31T01:57:48;10.70;99.90
3194;DHT22;1608;50.860;13.466;2023-03-31T02:00:19;10.70;99.90
3194;DHT22;1608;50.860;13.466;2023-03-31T02:02:54;10.60;99.90
3194;DHT22;1608;50.860;13.466;2023-03-31T02:05:24;10.60;99.90
3194;DHT22;1608;50.860;13.466;2023-03-31T02:07:54;10.60;99.90
3194;DHT22;1608;50.860;13.466;2023-03-31T02:10:25;10.60;99.90
3194;DHT22;1608;50.860;13.466;2023-03-31T02:12:56;10.70;99.90
3194;DHT22;1608;50.860;13.466;2023-03-31T02:15:26;10.60;99.90
3194;DHT22;1608;50.860;13.466;2023-03-31T02:17:56;10.60;99.90
3194;DHT22;1608;50.860;13.466;2023-03-31T02:20:26;10.50;99.90
3194;DHT22;1608;50.860;13.466;2023-03-31T02:22:57;10.60;99.90
3194;DHT22;1608;50.860;13.466;2023-03-31T02:25:30;10.50;99.90
3194;DHT22;1608;50.860;13.466;2023-03-31T02:28:00;10.60;99.90
3194;DHT22;1608;50.860;13.466;2023-03-31T02:30:33;10.60;99.90
3194;DHT22;1608;50.860;13.466;2023-03-31T02:33:02;10.50;99.90
3194;DHT22;1608;50.860;13.466;2023-03-31T02:35:29;10.60;99.90
3194;DHT22;1608;50.860;13.466;2023-03-31T02:37:56;10.50;99.90
3194;DHT22;1608;50.860;13.466;2023-03-31T02:40:24;10.50;99.90
3194;DHT22;1608;50.860;13.466;2023-03-31T02:42:53;10.50;99.90
3194;DHT22;1608;50.860;13.466;2023-03-31T02:45:42;10.50;99.90
3194;DHT22;1608;50.860;13.466;2023-03-31T02:48:13;10.40;99.90
3194;DHT22;1608;50.860;13.466;2023-03-31T02:51:00;10.30;99.90
3194;DHT22;1608;50.860;13.466;2023-03-31T02:53:42;10.30;99.90
3194;DHT22;1608;50.860;13.466;2023-03-31T02:56:25;10.30;99.90
3194;DHT22;1608;50.860;13.466;2023-03-31T02:59:09;10.50;99.90
3194;DHT22;1608;50.860;13.466;2023-03-31T03:02:01;10.50;99.90
3194;DHT22;1608;50.860;13.466;2023-03-31T03:04:48;10.50;99.90
3194;DHT22;1608;50.860;13.466;2023-03-31T03:07:24;10.50;99.90
3194;DHT22;1608;50.860;13.466;2023-03-31T03:10:01;10.50;99.90
3194;DHT22;1608;50.860;13.466;2023-03-31T03:12:35;10.50;99.90
3194;DHT22;1608;50.860;13.466;2023-03-31T03:15:07;10.50;99.90
3194;DHT22;1608;50.860;13.466;2023-03-31T03:17:38;10.60;99.90
3194;DHT22;1608;50.860;13.466;2023-03-31T03:20:07;10.80;99.90
3194;DHT22;1608;50.860;13.466;2023-03-31T03:22:35;10.90;99.90
3194;DHT22;1608;50.860;13.466;2023-03-31T03:25:02;10.90;99.90
3194;DHT22;1608;50.860;13.466;2023-03-31T03:27:29;11.00;99.90
3194;DHT22;1608;50.860;13.466;2023-03-31T03:29:57;11.10;99.90
3194;DHT22;1608;50.860;13.466;2023-03-31T03:32:25;11.10;99.90
3194;DHT22;1608;50.860;13.466;2023-03-31T03:34:52;11.10;99.90
3194;DHT22;1608;50.860;13.466;2023-03-31T03:37:19;11.10;99.90
3194;DHT22;1608;50.860;13.466;2023-03-31T03:39:45;11.10;99.90
3194;DHT22;1608;50.860;13.466;2023-03-31T03:42:12;11.10;99.90
3194;DHT22;1608;50.860;13.466;2023-03-31T03:44:39;11.20;99.90
3194;DHT22;1608;50.860;13.466;2023-03-31T03:47:06;11.30;99.90
3194;DHT22;1608;50.860;13.466;2023-03-31T03:49:34;11.20;99.90
3194;DHT22;1608;50.860;13.466;2023-03-31T03:52:01;11.20;99.90
3194;DHT22;1608;50.860;13.466;2023-03-31T03:54:28;11.30;99.90
3194;DHT22;1608;50.860;13.466;2023-03-31T03:56:55;11.30;99.90
3194;DHT22;1608;50.860;13.466;2023-03-31T03:59:22;11.40;99.90
3194;DHT22;1608;50.860;13.466;2023-03-31T04:01:49;11.40;99.90
3194;DHT22;1608;50.860;13.466;2023-03-31T04:04:16;11.40;99.90
3194;DHT22;1608;50.860;13.466;2023-03-31T04:06:44;11.40;99.90
3194;DHT22;1608;50.860;13.466;2023-03-31T04:09:11;11.30;99.90
3194;DHT22;1608;50.860;13.466;2023-03-31T04:11:37;11.20;99.90
3194;DHT22;1608;50.860;13.466;2023-03-31T04:14:04;11.00;99.90
3194;DHT22;1608;50.860;13.466;2023-03-31T04:16:31;11.00;99.90
3194;DHT22;1608;50.860;13.466;2023-03-31T04:18:59;11.00;99.90
3194;DHT22;1608;50.860;13.466;2023-03-31T04:21:29;11.00;99.90
3194;DHT22;1608;50.860;13.466;2023-03-31T04:24:00;11.00;99.90
3194;DHT22;1608;50.860;13.466;2023-03-31T04:26:30;11.00;99.90
3194;DHT22;1608;50.860;13.466;2023-03-31T04:29:04;11.10;99.90
3194;DHT22;1608;50.860;13.466;2023-03-31T04:31:32;11.00;99.90
3194;DHT22;1608;50.860;13.466;2023-03-31T04:33:59;11.20;99.90
3194;DHT22;1608;50.860;13.466;2023-03-31T04:36:27;11.20;99.90
3194;DHT22;1608;50.860;13.466;2023-03-31T04:38:56;11.20;99.90
3194;DHT22;1608;50.860;13.466;2023-03-31T04:41:24;11.20;99.90
3194;DHT22;1608;50.860;13.466;2023-03-31T04:43:52;11.30;99.90
3194;DHT22;1608;50.860;13.466;2023-03-31T04:46:19;11.10;99.90
3194;DHT22;1608;50.860;13.466;2023-03-31T04:48:46;11.10;99.90
3194;DHT22;1608;50.860;13.466;2023-03-31T04:51:12;11.00;99.90
3194;DHT22;1608;50.860;13.466;2023-03-31T04:53:40;11.00;99.90
3194;DHT22;1608;50.860;13.466;2023-03-31T04:56:07;11.00;99.90
3194;DHT22;1608;50.860;13.466;2023-03-31T04:58:35;11.10;99.90
3194;DHT22;1608;50.860;13.466;2023-03-31T05:01:03;11.10;99.90
3194;DHT22;1608;50.860;13.466;2023-03-31T05:03:32;11.10;99.90
3194;DHT22;1608;50.860;13.466;2023-03-31T05:05:59;11.10;99.90
3194;DHT22;1608;50.860;13.466;2023-03-31T05:08:26;11.00;99.90
3194;DHT22;1608;50.860;13.466;2023-03-31T05:10:53;11.00;99.90
3194;DHT22;1608;50.860;13.466;2023-03-31T05:13:20;10.90;99.90
3194;DHT22;1608;50.860;13.466;2023-03-31T05:15:48;10.90;99.90
3194;DHT22;1608;50.860;13.466;2023-03-31T05:18:16;10.90;99.90
3194;DHT22;1608;50.860;13.466;2023-03-31T05:20:43;11.00;99.90
3194;DHT22;1608;50.860;13.466;2023-03-31T05:23:10;11.00;99.90
3194;DHT22;1608;50.860;13.466;2023-03-31T05:25:37;11.10;99.90
3194;DHT22;1608;50.860;13.466;2023-03-31T05:28:04;11.20;99.90
3194;DHT22;1608;50.860;13.466;2023-03-31T05:30:31;11.30;99.90
3194;DHT22;1608;50.860;13.466;2023-03-31T05:32:59;11.40;99.90
3194;DHT22;1608;50.860;13.466;2023-03-31T05:35:26;11.60;99.90
3194;DHT22;1608;50.860;13.466;2023-03-31T05:37:54;11.60;99.90
3194;DHT22;1608;50.860;13.466;2023-03-31T05:40:21;11.90;99.90
3194;DHT22;1608;50.860;13.466;2023-03-31T05:42:48;12.00;99.90
3194;DHT22;1608;50.860;13.466;2023-03-31T05:45:14;12.10;99.90
3194;DHT22;1608;50.860;13.466;2023-03-31T05:47:41;14.20;99.90
3194;DHT22;1608;50.860;13.466;2023-03-31T05:50:10;12.40;99.90
3194;DHT22;1608;50.860;13.466;2023-03-31T05:52:37;12.60;99.90
3194;DHT22;1608;50.860;13.466;2023-03-31T05:55:04;12.60;99.90
3194;DHT22;1608;50.860;13.466;2023-03-31T05:57:31;12.70;99.90
3194;DHT22;1608;50.860;13.466;2023-03-31T05:59:58;12.70;99.90
3194;DHT22;1608;50.860;13.466;2023-03-31T06:02:25;12.70;99.90
3194;DHT22;1608;50.860;13.466;2023-03-31T06:04:51;12.70;99.90
3194;DHT22;1608;50.860;13.466;2023-03-31T06:07:20;12.80;99.90
3194;DHT22;1608;50.860;13.466;2023-03-31T06:09:50;12.80;99.90
3194;DHT22;1608;50.860;13.466;2023-03-31T06:12:17;12.90;99.90
3194;DHT22;1608;50.860;13.466;2023-03-31T06:14:44;12.60;99.90
3194;DHT22;1608;50.860;13.466;2023-03-31T06:17:10;12.50;99.90
3194;DHT22;1608;50.860;13.466;2023-03-31T06:19:37;12.30;99.90
3194;DHT22;1608;50.860;13.466;2023-03-31T06:22:04;12.40;99.90
3194;DHT22;1608;50.860;13.466;2023-03-31T06:24:32;12.50;99.90
3194;DHT22;1608;50.860;13.466;2023-03-31T06:26:59;12.80;99.90
3194;DHT22;1608;50.860;13.466;2023-03-31T06:29:26;13.20;99.90
3194;DHT22;1608;50.860;13.466;2023-03-31T06:31:53;13.20;99.90
3194;DHT22;1608;50.860;13.466;2023-03-31T06:34:20;13.40;99.90
3194;DHT22;1608;50.860;13.466;2023-03-31T06:36:47;13.50;99.90
3194;DHT22;1608;50.860;13.466;2023-03-31T06:39:14;13.60;99.90
3194;DHT22;1608;50.860;13.466;2023-03-31T06:41:42;13.70;99.90
3194;DHT22;1608;50.860;13.466;2023-03-31T06:44:09;13.90;99.90
3194;DHT22;1608;50.860;13.466;2023-03-31T06:46:36;14.10;99.90
3194;DHT22;1608;50.860;13.466;2023-03-31T06:49:02;14.30;99.90
3194;DHT22;1608;50.860;13.466;2023-03-31T06:51:29;14.20;99.90
3194;DHT22;1608;50.860;13.466;2023-03-31T06:53:56;14.10;99.90
3194;DHT22;1608;50.860;13.466;2023-03-31T06:56:23;14.30;99.90
3194;DHT22;1608;50.860;13.466;2023-03-31T06:58:51;14.40;99.90
3194;DHT22;1608;50.860;13.466;2023-03-31T07:01:18;14.30;99.90
3194;DHT22;1608;50.860;13.466;2023-03-31T07:03:44;14.20;99.90
3194;DHT22;1608;50.860;13.466;2023-03-31T07:06:11;14.30;99.90
3194;DHT22;1608;50.860;13.466;2023-03-31T07:08:38;14.20;99.90
3194;DHT22;1608;50.860;13.466;2023-03-31T07:11:05;14.30;99.90
3194;DHT22;1608;50.860;13.466;2023-03-31T07:13:31;14.40;99.90
3194;DHT22;1608;50.860;13.466;2023-03-31T07:16:00;14.40;99.90
3194;DHT22;1608;50.860;13.466;2023-03-31T07:18:26;14.80;99.90
3194;DHT22;1608;50.860;13.466;2023-03-31T07:20:57;15.80;99.90
3194;DHT22;1608;50.860;13.466;2023-03-31T07:23:24;16.60;99.90
3194;DHT22;1608;50.860;13.466;2023-03-31T07:25:51;17.40;99.90
3194;DHT22;1608;50.860;13.466;2023-03-31T07:28:18;17.90;99.90
3194;DHT22;1608;50.860;13.466;2023-03-31T07:30:44;18.10;99.90
3194;DHT22;1608;50.860;13.466;2023-03-31T07:33:13;18.20;99.90
3194;DHT22;1608;50.860;13.466;2023-03-31T07:35:40;17.90;99.90
3194;DHT22;1608;50.860;13.466;2023-03-31T07:38:07;17.90;99.90
3194;DHT22;1608;50.860;13.466;2023-03-31T07:40:34;17.50;99.90
3194;DHT22;1608;50.860;13.466;2023-03-31T07:43:01;17.40;99.90
3194;DHT22;1608;50.860;13.466;2023-03-31T07:45:28;17.10;99.90
3194;DHT22;1608;50.860;13.466;2023-03-31T07:47:55;16.90;99.90
3194;DHT22;1608;50.860;13.466;2023-03-31T07:50:23;16.90;99.90
3194;DHT22;1608;50.860;13.466;2023-03-31T07:52:51;17.00;99.90
3194;DHT22;1608;50.860;13.466;2023-03-31T07:55:18;17.10;99.90
3194;DHT22;1608;50.860;13.466;2023-03-31T07:57:45;17.00;99.90
3194;DHT22;1608;50.860;13.466;2023-03-31T08:00:13;16.50;99.90
3194;DHT22;1608;50.860;13.466;2023-03-31T08:02:41;16.30;99.90
3194;DHT22;1608;50.860;13.466;2023-03-31T08:05:09;16.10;99.90
3194;DHT22;1608;50.860;13.466;2023-03-31T08:07:40;16.20;99.90
3194;DHT22;1608;50.860;13.466;2023-03-31T08:10:10;15.90;99.90
3194;DHT22;1608;50.860;13.466;2023-03-31T08:12:37;15.90;99.90
3194;DHT22;1608;50.860;13.466;2023-03-31T08:15:05;15.80;99.90
3194;DHT22;1608;50.860;13.466;2023-03-31T08:17:32;15.90;99.90
3194;DHT22;1608;50.860;13.466;2023-03-31T08:19:59;15.80;99.90
3194;DHT22;1608;50.860;13.466;2023-03-31T08:22:26;15.90;99.90
3194;DHT22;1608;50.860;13.466;2023-03-31T08:24:54;15.80;99.90
3194;DHT22;1608;50.860;13.466;2023-03-31T08:27:21;15.80;99.90
3194;DHT22;1608;50.860;13.466;2023-03-31T08:29:47;15.60;99.90
3194;DHT22;1608;50.860;13.466;2023-03-31T08:32:14;15.60;99.90
3194;DHT22;1608;50.860;13.466;2023-03-31T08:34:41;15.50;99.90
3194;DHT22;1608;50.860;13.466;2023-03-31T08:37:08;15.20;99.90
3194;DHT22;1608;50.860;13.466;2023-03-31T08:39:35;14.70;99.90
3194;DHT22;1608;50.860;13.466;2023-03-31T08:42:10;14.80;99.90
3194;DHT22;1608;50.860;13.466;2023-03-31T08:44:43;14.70;99.90
3194;DHT22;1608;50.860;13.466;2023-03-31T08:47:14;14.80;99.90
3194;DHT22;1608;50.860;13.466;2023-03-31T08:49:47;15.10;99.90
3194;DHT22;1608;50.860;13.466;2023-03-31T08:52:17;15.10;99.90
3194;DHT22;1608;50.860;13.466;2023-03-31T08:54:46;15.10;99.90
3194;DHT22;1608;50.860;13.466;2023-03-31T08:57:18;15.10;99.90
3194;DHT22;1608;50.860;13.466;2023-03-31T08:59:46;14.80;99.90
3194;DHT22;1608;50.860;13.466;2023-03-31T09:02:20;14.80;99.90
3194;DHT22;1608;50.860;13.466;2023-03-31T09:07:48;14.90;99.90
3194;DHT22;1608;50.860;13.466;2023-03-31T09:10:31;15.10;99.90
3194;DHT22;1608;50.860;13.466;2023-03-31T09:13:06;15.20;99.90
3194;DHT22;1608;50.860;13.466;2023-03-31T09:15:40;15.20;99.90
3194;DHT22;1608;50.860;13.466;2023-03-31T09:18:14;15.30;99.90
3194;DHT22;1608;50.860;13.466;2023-03-31T09:20:47;15.40;99.90
3194;DHT22;1608;50.860;13.466;2023-03-31T09:23:23;15.40;99.90
3194;DHT22;1608;50.860;13.466;2023-03-31T09:25:50;15.40;99.90
3194;DHT22;1608;50.860;13.466;2023-03-31T09:28:21;15.10;99.90
3194;DHT22;1608;50.860;13.466;2023-03-31T09:30:49;15.10;99.90
3194;DHT22;1608;50.860;13.466;2023-03-31T09:33:18;15.00;99.90
3194;DHT22;1608;50.860;13.466;2023-03-31T09:35:45;14.90;99.90
3194;DHT22;1608;50.860;13.466;2023-03-31T09:38:13;14.90;99.90
3194;DHT22;1608;50.860;13.466;2023-03-31T09:40:41;15.00;99.90
3194;DHT22;1608;50.860;13.466;2023-03-31T09:43:15;15.00;99.90
3194;DHT22;1608;50.860;13.466;2023-03-31T09:45:45;15.00;99.90
3194;DHT22;1608;50.860;13.466;2023-03-31T09:48:15;14.90;99.90
3194;DHT22;1608;50.860;13.466;2023-03-31T09:50:45;14.80;99.90
3194;DHT22;1608;50.860;13.466;2023-03-31T09:53:18;14.80;99.90
3194;DHT22;1608;50.860;13.466;2023-03-31T09:55:51;14.60;99.90
3194;DHT22;1608;50.860;13.466;2023-03-31T09:58:18;14.70;99.90
3194;DHT22;1608;50.860;13.466;2023-03-31T10:00:58;14.80;99.90
3194;DHT22;1608;50.860;13.466;2023-03-31T10:03:26;14.80;99.90
3194;DHT22;1608;50.860;13.466;2023-03-31T10:05:56;14.70;99.90
3194;DHT22;1608;50.860;13.466;2023-03-31T10:08:28;14.90;99.90
3194;DHT22;1608;50.860;13.466;2023-03-31T10:11:05;14.70;99.90
3194;DHT22;1608;50.860;13.466;2023-03-31T10:13:40;14.70;99.90
3194;DHT22;1608;50.860;13.466;2023-03-31T10:16:12;14.60;99.90
3194;DHT22;1608;50.860;13.466;2023-03-31T10:18:41;14.50;99.90
3194;DHT22;1608;50.860;13.466;2023-03-31T10:21:19;14.40;99.90
3194;DHT22;1608;50.860;13.466;2023-03-31T10:23:47;14.40;99.90
3194;DHT22;1608;50.860;13.466;2023-03-31T10:26:17;14.40;99.90
3194;DHT22;1608;50.860;13.466;2023-03-31T10:28:47;14.40;99.90
3194;DHT22;1608;50.860;13.466;2023-03-31T10:31:16;14.50;99.90
3194;DHT22;1608;50.860;13.466;2023-03-31T10:33:45;14.60;99.90
3194;DHT22;1608;50.860;13.466;2023-03-31T10:36:19;14.70;99.90
3194;DHT22;1608;50.860;13.466;2023-03-31T10:38:49;14.70;99.90
3194;DHT22;1608;50.860;13.466;2023-03-31T10:41:18;14.70;99.90
3194;DHT22;1608;50.860;13.466;2023-03-31T10:43:48;14.60;99.90
3194;DHT22;1608;50.860;13.466;2023-03-31T10:46:18;14.70;99.90
3194;DHT22;1608;50.860;13.466;2023-03-31T10:48:45;14.70;99.90
3194;DHT22;1608;50.860;13.466;2023-03-31T10:51:15;14.70;99.90
3194;DHT22;1608;50.860;13.466;2023-03-31T10:53:44;14.90;99.90
3194;DHT22;1608;50.860;13.466;2023-03-31T10:56:35;14.90;99.90
3194;DHT22;1608;50.860;13.466;2023-03-31T10:59:16;15.10;99.90
3194;DHT22;1608;50.860;13.466;2023-03-31T11:01:59;15.10;99.90
3194;DHT22;1608;50.860;13.466;2023-03-31T11:04:55;15.20;99.90
3194;DHT22;1608;50.860;13.466;2023-03-31T11:07:37;15.20;99.90
3194;DHT22;1608;50.860;13.466;2023-03-31T11:13:06;15.00;99.90
3194;DHT22;1608;50.860;13.466;2023-03-31T11:15:41;14.80;99.90
3194;DHT22;1608;50.860;13.466;2023-03-31T11:18:29;14.60;99.90
3194;DHT22;1608;50.860;13.466;2023-03-31T11:21:04;14.40;99.90
3194;DHT22;1608;50.860;13.466;2023-03-31T11:23:40;14.20;99.90
3194;DHT22;1608;50.860;13.466;2023-03-31T11:26:09;14.20;99.90
3194;DHT22;1608;50.860;13.466;2023-03-31T11:29:02;14.00;99.90
3194;DHT22;1608;50.860;13.466;2023-03-31T11:31:38;13.90;99.90
3194;DHT22;1608;50.860;13.466;2023-03-31T11:37:23;13.60;99.90
3194;DHT22;1608;50.860;13.466;2023-03-31T11:40:08;13.40;99.90
3194;DHT22;1608;50.860;13.466;2023-03-31T11:42:46;13.50;99.90
3194;DHT22;1608;50.860;13.466;2023-03-31T11:45:16;13.50;99.90
3194;DHT22;1608;50.860;13.466;2023-03-31T11:47:45;13.40;99.90
3194;DHT22;1608;50.860;13.466;2023-03-31T11:50:18;13.60;99.90
3194;DHT22;1608;50.860;13.466;2023-03-31T11:52:51;13.60;99.90
3194;DHT22;1608;50.860;13.466;2023-03-31T11:55:22;13.60;99.90
3194;DHT22;1608;50.860;13.466;2023-03-31T11:57:58;13.80;99.90
3194;DHT22;1608;50.860;13.466;2023-03-31T12:00:28;13.90;99.90
3194;DHT22;1608;50.860;13.466;2023-03-31T12:03:00;13.90;99.90
3194;DHT22;1608;50.860;13.466;2023-03-31T12:05:36;13.90;99.90
3194;DHT22;1608;50.860;13.466;2023-03-31T12:08:07;13.90;99.90
3194;DHT22;1608;50.860;13.466;2023-03-31T12:10:40;13.90;99.90
3194;DHT22;1608;50.860;13.466;2023-03-31T12:13:25;13.80;99.90
3194;DHT22;1608;50.860;13.466;2023-03-31T12:16:00;13.60;99.90
3194;DHT22;1608;50.860;13.466;2023-03-31T12:18:34;13.70;99.90
3194;DHT22;1608;50.860;13.466;2023-03-31T12:21:05;13.70;99.90
3194;DHT22;1608;50.860;13.466;2023-03-31T12:23:37;13.70;99.90
3194;DHT22;1608;50.860;13.466;2023-03-31T12:26:10;13.60;99.90
3194;DHT22;1608;50.860;13.466;2023-03-31T12:28:40;13.60;99.90
3194;DHT22;1608;50.860;13.466;2023-03-31T12:31:11;13.40;99.90
3194;DHT22;1608;50.860;13.466;2023-03-31T12:33:44;13.30;99.90
3194;DHT22;1608;50.860;13.466;2023-03-31T12:36:22;13.40;99.90
3194;DHT22;1608;50.860;13.466;2023-03-31T12:39:00;13.40;99.90
3194;DHT22;1608;50.860;13.466;2023-03-31T12:41:39;13.30;99.90
3194;DHT22;1608;50.860;13.466;2023-03-31T12:44:15;13.30;99.90
3194;DHT22;1608;50.860;13.466;2023-03-31T12:47:07;13.20;99.90
3194;DHT22;1608;50.860;13.466;2023-03-31T12:49:51;13.20;99.90
3194;DHT22;1608;50.860;13.466;2023-03-31T12:52:31;13.20;99.90
3194;DHT22;1608;50.860;13.466;2023-03-31T12:55:22;13.50;99.90
3194;DHT22;1608;50.860;13.466;2023-03-31T13:01:05;13.30;99.90
3194;DHT22;1608;50.860;13.466;2023-03-31T13:03:39;13.30;99.90
3194;DHT22;1608;50.860;13.466;2023-03-31T13:06:08;13.20;99.90
3194;DHT22;1608;50.860;13.466;2023-03-31T13:08:52;13.10;99.90
3194;DHT22;1608;50.860;13.466;2023-03-31T13:11:20;13.10;99.90
3194;DHT22;1608;50.860;13.466;2023-03-31T13:13:57;13.10;99.90
3194;DHT22;1608;50.860;13.466;2023-03-31T13:16:25;13.40;99.90
3194;DHT22;1608;50.860;13.466;2023-03-31T13:18:53;13.60;99.90
3194;DHT22;1608;50.860;13.466;2023-03-31T13:21:20;13.80;99.90
3194;DHT22;1608;50.860;13.466;2023-03-31T13:23:47;13.90;99.90
3194;DHT22;1608;50.860;13.466;2023-03-31T13:26:38;14.10;99.90
3194;DHT22;1608;50.860;13.466;2023-03-31T13:29:17;14.40;99.90
3194;DHT22;1608;50.860;13.466;2023-03-31T13:32:13;14.50;99.90
3194;DHT22;1608;50.860;13.466;2023-03-31T13:34:45;14.40;99.90
3194;DHT22;1608;50.860;13.466;2023-03-31T13:37:18;14.40;99.90
3194;DHT22;1608;50.860;13.466;2023-03-31T13:40:31;14.50;99.90
3194;DHT22;1608;50.860;13.466;2023-03-31T13:43:26;14.50;99.90
3194;DHT22;1608;50.860;13.466;2023-03-31T13:46:05;14.60;99.90
3194;DHT22;1608;50.860;13.466;2023-03-31T13:48:43;14.60;99.90
3194;DHT22;1608;50.860;13.466;2023-03-31T13:51:25;14.70;99.90
3194;DHT22;1608;50.860;13.466;2023-03-31T13:54:16;14.70;99.90
3194;DHT22;1608;50.860;13.466;2023-03-31T13:57:07;14.90;99.90
3194;DHT22;1608;50.860;13.466;2023-03-31T14:00:07;15.00;99.90
3194;DHT22;1608;50.860;13.466;2023-03-31T14:03:05;15.00;99.90
3194;DHT22;1608;50.860;13.466;2023-03-31T14:05:42;15.30;99.90
3194;DHT22;1608;50.860;13.466;2023-03-31T14:08:13;15.40;99.90
3194;DHT22;1608;50.860;13.466;2023-03-31T14:10:44;15.60;99.90
3194;DHT22;1608;50.860;13.466;2023-03-31T14:13:13;15.80;99.90
3194;DHT22;1608;50.860;13.466;2023-03-31T14:15:45;15.90;99.90
3194;DHT22;1608;50.860;13.466;2023-03-31T14:18:15;15.90;99.90
3194;DHT22;1608;50.860;13.466;2023-03-31T14:20:52;16.00;99.90
3194;DHT22;1608;50.860;13.466;2023-03-31T14:23:36;15.90;99.90
3194;DHT22;1608;50.860;13.466;2023-03-31T14:26:15;15.90;99.90
3194;DHT22;1608;50.860;13.466;2023-03-31T14:29:00;15.90;99.90
3194;DHT22;1608;50.860;13.466;2023-03-31T14:31:37;15.70;99.90
3194;DHT22;1608;50.860;13.466;2023-03-31T14:34:30;15.80;99.90
3194;DHT22;1608;50.860;13.466;2023-03-31T14:37:03;15.70;99.90
3194;DHT22;1608;50.860;13.466;2023-03-31T14:39:35;15.40;99.90
3194;DHT22;1608;50.860;13.466;2023-03-31T14:42:04;15.40;99.90
3194;DHT22;1608;50.860;13.466;2023-03-31T14:44:33;15.40;99.90
3194;DHT22;1608;50.860;13.466;2023-03-31T14:47:01;15.40;99.90
3194;DHT22;1608;50.860;13.466;2023-03-31T14:49:33;15.40;99.90
3194;DHT22;1608;50.860;13.466;2023-03-31T14:52:03;15.30;99.90
3194;DHT22;1608;50.860;13.466;2023-03-31T14:54:33;15.30;99.90
3194;DHT22;1608;50.860;13.466;2023-03-31T14:57:03;15.20;99.90
3194;DHT22;1608;50.860;13.466;2023-03-31T14:59:32;15.00;99.90
3194;DHT22;1608;50.860;13.466;2023-03-31T15:02:06;14.80;99.90
3194;DHT22;1608;50.860;13.466;2023-03-31T15:04:40;14.60;99.90
3194;DHT22;1608;50.860;13.466;2023-03-31T15:07:11;14.50;99.90
3194;DHT22;1608;50.860;13.466;2023-03-31T15:09:47;14.30;99.90
3194;DHT22;1608;50.860;13.466;2023-03-31T15:12:16;14.30;99.90
3194;DHT22;1608;50.860;13.466;2023-03-31T15:14:45;14.30;99.90
3194;DHT22;1608;50.860;13.466;2023-03-31T15:17:22;14.40;99.90
3194;DHT22;1608;50.860;13.466;2023-03-31T15:19:54;14.50;99.90
3194;DHT22;1608;50.860;13.466;2023-03-31T15:22:23;14.60;99.90
3194;DHT22;1608;50.860;13.466;2023-03-31T15:24:50;14.60;99.90
3194;DHT22;1608;50.860;13.466;2023-03-31T15:27:25;14.60;99.90
3194;DHT22;1608;50.860;13.466;2023-03-31T15:29:54;14.70;99.90
3194;DHT22;1608;50.860;13.466;2023-03-31T15:32:26;14.80;99.90
3194;DHT22;1608;50.860;13.466;2023-03-31T15:34:54;14.80;99.90
3194;DHT22;1608;50.860;13.466;2023-03-31T15:37:22;14.90;99.90
3194;DHT22;1608;50.860;13.466;2023-03-31T15:39:54;14.80;99.90
3194;DHT22;1608;50.860;13.466;2023-03-31T15:42:22;14.90;99.90
3194;DHT22;1608;50.860;13.466;2023-03-31T15:44:54;14.90;99.90
3194;DHT22;1608;50.860;13.466;2023-03-31T15:47:22;14.90;99.90
3194;DHT22;1608;50.860;13.466;2023-03-31T15:49:53;14.60;99.90
3194;DHT22;1608;50.860;13.466;2023-03-31T15:52:26;14.60;99.90
3194;DHT22;1608;50.860;13.466;2023-03-31T15:54:54;14.60;99.90
3194;DHT22;1608;50.860;13.466;2023-03-31T15:57:30;14.60;99.90
3194;DHT22;1608;50.860;13.466;2023-03-31T15:59:57;14.40;99.90
3194;DHT22;1608;50.860;13.466;2023-03-31T16:02:26;14.50;99.90
3194;DHT22;1608;50.860;13.466;2023-03-31T16:04:58;14.40;99.90
3194;DHT22;1608;50.860;13.466;2023-03-31T16:07:28;14.30;99.90
3194;DHT22;1608;50.860;13.466;2023-03-31T16:09:58;14.10;99.90
3194;DHT22;1608;50.860;13.466;2023-03-31T16:12:28;14.10;99.90
3194;DHT22;1608;50.860;13.466;2023-03-31T16:15:01;14.20;99.90
3194;DHT22;1608;50.860;13.466;2023-03-31T16:17:31;14.10;99.90
3194;DHT22;1608;50.860;13.466;2023-03-31T16:20:02;14.00;99.90
3194;DHT22;1608;50.860;13.466;2023-03-31T16:22:36;14.00;99.90
3194;DHT22;1608;50.860;13.466;2023-03-31T16:25:11;13.90;99.90
3194;DHT22;1608;50.860;13.466;2023-03-31T16:27:41;13.90;99.90
3194;DHT22;1608;50.860;13.466;2023-03-31T16:30:11;13.90;99.90
3194;DHT22;1608;50.860;13.466;2023-03-31T16:32:38;13.90;99.90
3194;DHT22;1608;50.860;13.466;2023-03-31T16:35:29;13.80;99.90